createdAt,value
2022-08-20T00:02:14.650Z,4.67
2022-08-20T00:04:44.258Z,6.00
2022-08-20T00:07:13.274Z,8.20
2022-08-20T00:09:41.698Z,3.50
2022-08-20T00:12:11.324Z,4.57
2022-08-20T00:14:39.961Z,4.47
2022-08-20T00:17:08.354Z,3.93
2022-08-20T00:19:36.578Z,3.63
2022-08-20T00:22:06.339Z,3.30
2022-08-20T00:24:34.944Z,4.63
2022-08-20T00:27:03.449Z,4.77
2022-08-20T00:29:31.674Z,4.10
2022-08-20T00:31:59.899Z,3.93
2022-08-20T00:34:29.388Z,3.40
2022-08-20T00:36:57.792Z,3.33
2022-08-20T00:39:27.474Z,3.50
2022-08-20T00:41:55.609Z,3.17
2022-08-20T00:44:24.538Z,3.60
2022-08-20T00:46:53.772Z,3.77
2022-08-20T00:49:24.998Z,3.07
2022-08-20T00:51:57.065Z,2.97
2022-08-20T00:54:28.757Z,3.67
2022-08-20T00:57:01.547Z,2.37
2022-08-20T00:59:31.729Z,3.20
2022-08-20T01:02:01.868Z,2.97
2022-08-20T01:04:33.445Z,3.30
2022-08-20T01:07:02.147Z,3.50
2022-08-20T01:09:49.553Z,2.77
2022-08-20T01:12:20.068Z,3.00
2022-08-20T01:14:48.707Z,3.33
2022-08-20T01:17:20.917Z,3.13
2022-08-20T01:19:51.550Z,3.77
2022-08-20T01:22:42.969Z,2.90
2022-08-20T01:25:18.549Z,3.00
2022-08-20T01:27:48.183Z,2.37
2022-08-20T01:30:29.198Z,2.90
2022-08-20T01:32:57.300Z,3.03
2022-08-20T01:35:26.066Z,3.43
2022-08-20T01:37:54.261Z,2.87
2022-08-20T01:40:30.838Z,2.50
2022-08-20T01:43:00.414Z,2.77
2022-08-20T01:45:30.360Z,2.60
2022-08-20T01:47:59.755Z,2.80
2022-08-20T01:50:30.362Z,2.80
2022-08-20T01:53:13.051Z,2.27
2022-08-20T01:55:41.332Z,1.93
2022-08-20T01:58:11.051Z,2.60
2022-08-20T02:00:39.377Z,2.33
2022-08-20T02:03:07.909Z,1.90
2022-08-20T02:05:36.272Z,1.90
2022-08-20T02:08:05.407Z,1.97
2022-08-20T02:10:34.478Z,1.83
2022-08-20T02:13:02.878Z,2.10
2022-08-20T02:15:35.163Z,1.40
2022-08-20T02:18:10.927Z,1.80
2022-08-20T02:20:39.987Z,1.60
2022-08-20T02:23:08.639Z,1.80
2022-08-20T02:25:38.821Z,1.67
2022-08-20T02:28:09.303Z,1.90
2022-08-20T02:30:42.112Z,2.10
2022-08-20T02:33:12.173Z,1.50
2022-08-20T02:35:41.226Z,1.50
2022-08-20T02:38:09.344Z,1.47
2022-08-20T02:40:37.687Z,1.50
2022-08-20T02:43:06.135Z,1.50
2022-08-20T02:45:37.572Z,2.20
2022-08-20T02:48:07.313Z,2.80
2022-08-20T02:50:35.480Z,1.10
2022-08-20T02:53:03.919Z,1.43
2022-08-20T02:55:32.013Z,1.73
2022-08-20T02:58:01.306Z,1.33
2022-08-20T03:00:37.783Z,1.57
2022-08-20T03:03:08.270Z,1.20
2022-08-20T03:05:36.455Z,1.30
2022-08-20T03:08:09.139Z,1.40
2022-08-20T03:10:38.654Z,1.47
2022-08-20T03:13:11.321Z,1.70
2022-08-20T03:15:40.775Z,1.10
2022-08-20T03:18:10.835Z,1.30
2022-08-20T03:20:39.279Z,1.30
2022-08-20T03:23:08.353Z,1.60
2022-08-20T03:25:36.576Z,1.80
2022-08-20T03:28:05.747Z,2.13
2022-08-20T03:30:34.092Z,2.13
2022-08-20T03:33:02.190Z,2.00
2022-08-20T03:35:33.416Z,2.27
2022-08-20T03:38:01.558Z,2.00
2022-08-20T03:40:32.159Z,2.07
2022-08-20T03:43:00.720Z,1.70
2022-08-20T03:45:30.583Z,1.40
2022-08-20T03:47:58.880Z,2.07
2022-08-20T03:50:30.228Z,1.10
2022-08-20T03:53:01.408Z,1.60
2022-08-20T03:55:31.022Z,1.47
2022-08-20T03:58:02.792Z,3.03
2022-08-20T04:00:33.646Z,1.30
2022-08-20T04:03:02.076Z,1.20
2022-08-20T04:05:31.500Z,1.20
2022-08-20T04:08:03.080Z,1.30
2022-08-20T04:10:31.983Z,1.40
2022-08-20T04:13:00.313Z,1.17
2022-08-20T04:15:30.022Z,2.23
2022-08-20T04:17:59.932Z,1.10
2022-08-20T04:20:28.370Z,1.50
2022-08-20T04:22:59.039Z,1.53
2022-08-20T04:25:30.084Z,1.30
2022-08-20T04:28:06.505Z,1.20
2022-08-20T04:30:34.942Z,1.30
2022-08-20T04:33:03.212Z,1.73
2022-08-20T04:35:32.617Z,2.17
2022-08-20T04:38:01.716Z,1.60
2022-08-20T04:40:45.679Z,1.40
2022-08-20T04:43:14.095Z,1.57
2022-08-20T04:45:43.715Z,1.60
2022-08-20T04:48:15.137Z,1.77
2022-08-20T04:50:46.828Z,1.40
2022-08-20T04:53:20.666Z,1.57
2022-08-20T04:55:53.621Z,1.30
2022-08-20T04:58:24.749Z,1.30
2022-08-20T05:01:01.202Z,5.70
2022-08-20T05:03:29.958Z,1.43
2022-08-20T05:05:59.044Z,1.20
2022-08-20T05:08:27.795Z,1.30
2022-08-20T05:11:06.749Z,1.10
2022-08-20T05:13:46.172Z,1.00
2022-08-20T05:16:16.264Z,1.13
2022-08-20T05:18:45.710Z,1.30
2022-08-20T05:21:21.053Z,1.43
2022-08-20T05:23:49.702Z,1.53
2022-08-20T05:26:20.372Z,1.77
2022-08-20T05:28:57.977Z,1.50
2022-08-20T05:31:31.224Z,2.50
2022-08-20T05:34:01.193Z,1.53
2022-08-20T05:36:29.513Z,2.57
2022-08-20T05:38:57.638Z,1.60
2022-08-20T05:41:30.173Z,1.70
2022-08-20T05:44:01.449Z,1.17
2022-08-20T05:46:31.758Z,2.50
2022-08-20T05:49:01.799Z,1.20
2022-08-20T05:51:30.859Z,1.30
2022-08-20T05:53:59.501Z,1.00
2022-08-20T05:56:31.274Z,1.20
2022-08-20T05:59:02.654Z,1.20
2022-08-20T06:01:31.108Z,1.00
2022-08-20T06:04:16.540Z,0.90
2022-08-20T06:06:47.161Z,0.90
2022-08-20T06:09:28.546Z,3.40
2022-08-20T06:12:02.788Z,1.43
2022-08-20T06:14:34.235Z,1.73
2022-08-20T06:17:06.764Z,0.60
2022-08-20T06:19:36.468Z,0.60
2022-08-20T06:22:17.792Z,0.77
2022-08-20T06:24:51.357Z,0.77
2022-08-20T06:27:21.372Z,1.77
2022-08-20T06:29:50.293Z,0.70
2022-08-20T06:32:19.943Z,0.97
2022-08-20T06:35:02.164Z,0.80
2022-08-20T06:37:32.332Z,0.80
2022-08-20T06:40:03.599Z,0.80
2022-08-20T06:42:33.463Z,0.90
2022-08-20T06:45:04.938Z,1.47
2022-08-20T06:47:33.733Z,2.10
2022-08-20T06:50:01.876Z,1.20
2022-08-20T06:52:51.561Z,1.00
2022-08-20T06:55:18.900Z,1.30
2022-08-20T06:57:50.286Z,4.33
2022-08-20T07:00:21.105Z,0.90
2022-08-20T07:02:51.395Z,1.00
2022-08-20T07:05:25.158Z,0.80
2022-08-20T07:07:56.448Z,0.90
2022-08-20T07:10:34.143Z,1.77
2022-08-20T07:13:11.799Z,1.33
2022-08-20T07:15:47.941Z,1.00
2022-08-20T07:18:28.237Z,1.00
2022-08-20T07:21:00.126Z,0.90
2022-08-20T07:23:31.500Z,1.60
2022-08-20T07:26:06.297Z,1.77
2022-08-20T07:28:36.767Z,2.63
2022-08-20T07:31:23.790Z,1.53
2022-08-20T07:33:53.419Z,2.10
2022-08-20T07:36:22.546Z,1.00
2022-08-20T07:38:52.732Z,0.90
2022-08-20T07:41:24.233Z,0.80
2022-08-20T07:43:54.770Z,0.97
2022-08-20T07:46:23.418Z,1.10
2022-08-20T07:48:57.485Z,2.50
2022-08-20T07:51:26.608Z,0.80
2022-08-20T07:53:58.293Z,1.43
2022-08-20T07:56:30.117Z,0.70
2022-08-20T07:59:01.577Z,0.97
2022-08-20T08:01:32.315Z,0.87
2022-08-20T08:04:01.195Z,1.20
2022-08-20T08:06:32.615Z,1.10
2022-08-20T08:09:04.812Z,3.43
2022-08-20T08:11:34.856Z,1.70
2022-08-20T08:14:07.020Z,0.60
2022-08-20T08:16:35.891Z,1.63
2022-08-20T08:19:06.679Z,0.90
2022-08-20T08:21:34.898Z,0.73
2022-08-20T08:24:03.295Z,0.60
2022-08-20T08:26:31.679Z,0.50
2022-08-20T08:28:59.893Z,2.10
2022-08-20T08:31:29.493Z,0.50
2022-08-20T08:33:57.769Z,0.60
2022-08-20T08:36:26.894Z,0.80
2022-08-20T08:38:56.696Z,1.60
2022-08-20T08:41:29.560Z,0.57
2022-08-20T08:44:03.503Z,0.80
2022-08-20T08:46:38.719Z,0.80
2022-08-20T08:49:06.914Z,0.50
2022-08-20T08:51:39.785Z,1.27
2022-08-20T08:54:09.065Z,0.80
2022-08-20T08:56:37.574Z,0.90
2022-08-20T08:59:07.784Z,1.00
2022-08-20T09:01:54.449Z,0.80
2022-08-20T09:04:31.755Z,1.03
2022-08-20T09:07:00.790Z,0.93
2022-08-20T09:09:30.605Z,1.00
2022-08-20T09:12:04.915Z,1.33
2022-08-20T09:14:33.186Z,0.90
2022-08-20T09:17:02.994Z,0.87
2022-08-20T09:19:31.183Z,1.33
2022-08-20T09:21:59.299Z,0.80
2022-08-20T09:24:28.902Z,2.50
2022-08-20T09:26:56.979Z,1.53
2022-08-20T09:29:25.103Z,3.10
2022-08-20T09:32:06.561Z,1.23
2022-08-20T09:34:37.159Z,1.10
2022-08-20T09:37:05.641Z,1.37
2022-08-20T09:39:34.002Z,1.10
2022-08-20T09:42:08.682Z,2.97
2022-08-20T09:44:37.290Z,1.43
2022-08-20T09:47:07.413Z,0.97
2022-08-20T09:49:37.349Z,1.30
2022-08-20T09:52:08.704Z,3.47
2022-08-20T09:54:37.935Z,2.23
2022-08-20T09:57:07.845Z,3.43
2022-08-20T09:59:37.598Z,1.47
2022-08-20T10:02:07.180Z,1.20
2022-08-20T10:04:35.293Z,1.30
2022-08-20T10:07:03.333Z,0.90
2022-08-20T10:09:31.521Z,5.00
2022-08-20T10:11:59.754Z,1.07
2022-08-20T10:14:27.935Z,1.30
2022-08-20T10:16:59.895Z,1.20
2022-08-20T10:19:31.334Z,1.57
2022-08-20T10:21:59.588Z,1.37
2022-08-20T10:24:28.536Z,1.10
2022-08-20T10:26:57.696Z,1.43
2022-08-20T10:29:25.971Z,1.20
2022-08-20T10:31:55.034Z,1.00
2022-08-20T10:34:23.226Z,0.90
2022-08-20T10:36:53.120Z,1.77
2022-08-20T10:39:21.540Z,1.87
2022-08-20T10:41:50.739Z,1.20
2022-08-20T10:44:18.893Z,4.00
2022-08-20T10:46:47.119Z,1.60
2022-08-20T10:49:15.312Z,1.50
2022-08-20T10:51:43.499Z,1.83
2022-08-20T10:54:12.998Z,1.40
2022-08-20T10:56:41.345Z,1.20
2022-08-20T10:59:09.606Z,2.17
2022-08-20T11:01:37.867Z,1.40
2022-08-20T11:04:06.227Z,1.50
2022-08-20T11:06:34.448Z,5.30
2022-08-20T11:09:02.643Z,1.17
2022-08-20T11:11:32.184Z,1.30
2022-08-20T11:14:00.341Z,1.23
2022-08-20T11:16:28.617Z,1.17
2022-08-20T11:18:56.812Z,1.10
2022-08-20T11:21:24.966Z,1.43
2022-08-20T11:23:53.175Z,1.50
2022-08-20T11:26:24.118Z,1.60
2022-08-20T11:28:53.651Z,2.20
2022-08-20T11:31:21.720Z,2.13
2022-08-20T11:33:49.892Z,2.23
2022-08-20T11:36:18.019Z,2.60
2022-08-20T11:38:46.100Z,2.20
2022-08-20T11:41:14.546Z,1.60
2022-08-20T11:43:54.963Z,2.37
2022-08-20T11:46:32.978Z,3.00
2022-08-20T11:49:01.440Z,3.83
2022-08-20T11:51:29.726Z,2.00
2022-08-20T11:54:03.582Z,2.20
2022-08-20T11:56:32.323Z,2.40
2022-08-20T11:59:00.472Z,2.20
2022-08-20T12:01:28.695Z,1.60
2022-08-20T12:03:58.214Z,2.47
2022-08-20T12:06:26.429Z,2.40
2022-08-20T12:08:54.632Z,1.83
2022-08-20T12:11:22.760Z,2.30
2022-08-20T12:13:50.917Z,2.70
2022-08-20T12:16:19.718Z,3.53
2022-08-20T12:18:48.543Z,2.40
2022-08-20T12:21:18.256Z,2.53
2022-08-20T12:23:46.908Z,2.10
2022-08-20T12:26:16.766Z,4.57
2022-08-20T12:28:45.023Z,2.93
2022-08-20T12:31:13.558Z,2.27
2022-08-20T12:33:41.750Z,4.63
2022-08-20T12:36:11.038Z,2.60
2022-08-20T12:38:40.817Z,2.50
2022-08-20T12:41:09.043Z,2.60
2022-08-20T12:43:37.218Z,2.43
2022-08-20T12:46:05.481Z,2.47
2022-08-20T12:48:33.777Z,2.60
2022-08-20T12:51:01.885Z,2.50
2022-08-20T12:53:30.202Z,2.60
2022-08-20T12:56:02.576Z,2.40
2022-08-20T12:58:30.798Z,2.80
2022-08-20T13:00:59.014Z,2.50
2022-08-20T13:03:32.253Z,3.07
2022-08-20T13:06:02.278Z,3.03
2022-08-20T13:08:30.489Z,3.10
2022-08-20T13:11:02.833Z,2.40
2022-08-20T13:13:31.078Z,2.20
2022-08-20T13:15:59.254Z,2.60
2022-08-20T13:18:28.152Z,2.93
2022-08-20T13:20:56.357Z,2.97
2022-08-20T13:23:24.463Z,2.67
2022-08-20T13:25:52.829Z,2.83
2022-08-20T13:28:22.350Z,2.40
2022-08-20T13:30:50.649Z,2.53
2022-08-20T13:33:20.093Z,2.37
2022-08-20T13:35:50.752Z,3.67
2022-08-20T13:38:18.972Z,2.60
2022-08-20T13:40:48.953Z,2.33
2022-08-20T13:43:18.742Z,2.40
2022-08-20T13:45:48.539Z,2.30
2022-08-20T13:48:16.796Z,2.60
2022-08-20T13:50:47.378Z,2.40
2022-08-20T13:53:16.654Z,2.10
2022-08-20T13:55:45.577Z,2.10
2022-08-20T13:58:13.812Z,2.80
2022-08-20T14:00:42.024Z,3.27
2022-08-20T14:03:12.153Z,2.43
2022-08-20T14:05:42.406Z,2.90
2022-08-20T14:08:12.956Z,3.10
2022-08-20T14:10:42.579Z,4.20
2022-08-20T14:13:15.312Z,3.47
2022-08-20T14:15:44.244Z,3.33
2022-08-20T14:18:14.531Z,3.10
2022-08-20T14:20:45.804Z,2.83
2022-08-20T14:23:14.706Z,2.87
2022-08-20T14:25:43.102Z,3.50
2022-08-20T14:28:12.700Z,4.87
2022-08-20T14:30:41.365Z,2.90
2022-08-20T14:33:09.613Z,4.17
2022-08-20T14:35:39.487Z,4.00
2022-08-20T14:38:08.464Z,3.80
2022-08-20T14:40:37.211Z,3.50
2022-08-20T14:43:05.347Z,3.40
2022-08-20T14:45:33.670Z,3.10
2022-08-20T14:48:02.020Z,3.50
2022-08-20T14:50:32.828Z,3.33
2022-08-20T14:53:02.824Z,5.87
2022-08-20T14:55:33.330Z,8.20
2022-08-20T14:58:01.539Z,4.20
2022-08-20T15:00:33.921Z,3.43
2022-08-20T15:03:02.078Z,4.00
2022-08-20T15:05:30.471Z,2.90
2022-08-20T15:07:59.491Z,3.03
2022-08-20T15:10:32.540Z,3.60
2022-08-20T15:13:01.301Z,4.23
2022-08-20T15:15:30.044Z,3.93
2022-08-20T15:18:01.031Z,3.40
2022-08-20T15:20:31.849Z,4.43
2022-08-20T15:23:00.266Z,3.67
2022-08-20T15:25:36.573Z,4.40
2022-08-20T15:28:06.771Z,3.77
2022-08-20T15:30:35.325Z,4.47
2022-08-20T15:33:03.625Z,4.17
2022-08-20T15:35:31.913Z,4.50
2022-08-20T15:38:00.697Z,5.23
2022-08-20T15:40:31.899Z,4.50
2022-08-20T15:43:01.799Z,4.60
2022-08-20T15:45:30.403Z,5.07
2022-08-20T15:48:04.797Z,5.13
2022-08-20T15:50:49.561Z,4.50
2022-08-20T15:53:23.181Z,5.07
2022-08-20T15:55:59.209Z,4.93
2022-08-20T15:58:34.311Z,4.70
2022-08-20T16:01:24.217Z,5.03
2022-08-20T16:04:20.139Z,4.63
2022-08-20T16:06:48.831Z,4.20
2022-08-20T16:09:32.955Z,4.37
2022-08-20T16:12:09.076Z,4.63
2022-08-20T16:14:40.030Z,4.23
2022-08-20T16:17:12.665Z,3.70
2022-08-20T16:19:49.732Z,3.70
2022-08-20T16:22:19.978Z,4.57
2022-08-20T16:24:52.608Z,4.70
2022-08-20T16:27:33.546Z,4.20
2022-08-20T16:30:05.788Z,7.03
2022-08-20T16:32:53.926Z,5.27
2022-08-20T16:35:30.326Z,4.33
2022-08-20T16:38:09.243Z,3.27
2022-08-20T16:40:44.203Z,3.37
2022-08-20T16:43:27.945Z,3.77
2022-08-20T16:46:02.810Z,3.30
2022-08-20T16:48:35.572Z,5.43
2022-08-20T16:51:09.751Z,3.70
2022-08-20T16:53:40.491Z,4.00
2022-08-20T16:56:11.154Z,3.70
2022-08-20T16:58:45.687Z,4.57
2022-08-20T17:01:15.903Z,3.90
2022-08-20T17:03:50.692Z,3.60
2022-08-20T17:06:26.262Z,4.10
2022-08-20T17:08:55.101Z,4.40
2022-08-20T17:11:26.504Z,3.97
2022-08-20T17:14:07.287Z,3.63
2022-08-20T17:16:37.115Z,3.47
2022-08-20T17:19:11.451Z,4.00
2022-08-20T17:21:40.065Z,4.10
2022-08-20T17:24:16.980Z,2.90
2022-08-20T17:26:47.074Z,3.40
2022-08-20T17:29:19.218Z,3.73
2022-08-20T17:31:50.409Z,3.37
2022-08-20T17:34:22.408Z,3.00
2022-08-20T17:36:56.269Z,3.33
2022-08-20T17:39:26.395Z,2.60
2022-08-20T17:41:58.462Z,3.13
2022-08-20T17:44:30.264Z,2.30
2022-08-20T17:47:00.307Z,3.30
2022-08-20T17:49:35.733Z,3.43
2022-08-20T17:52:07.608Z,5.60
2022-08-20T17:54:38.311Z,1.20
2022-08-20T17:57:09.107Z,1.70
2022-08-20T17:59:59.702Z,2.03
2022-08-20T18:02:29.642Z,3.83
2022-08-20T18:04:58.016Z,1.23
2022-08-20T18:07:28.469Z,1.07
2022-08-20T18:09:59.840Z,1.20
2022-08-20T18:12:34.979Z,2.40
2022-08-20T18:15:09.949Z,1.33
2022-08-20T18:18:03.235Z,0.97
2022-08-20T18:20:47.872Z,1.03
2022-08-20T18:23:19.534Z,1.27
2022-08-20T18:25:51.705Z,1.20
2022-08-20T18:28:23.206Z,0.97
2022-08-20T18:30:57.155Z,0.80
2022-08-20T18:33:30.490Z,1.03
2022-08-20T18:36:14.503Z,1.00
2022-08-20T18:38:43.582Z,0.73
2022-08-20T18:41:27.680Z,1.23
2022-08-20T18:44:06.572Z,0.93
2022-08-20T18:46:36.522Z,0.50
2022-08-20T18:49:07.170Z,0.80
2022-08-20T18:51:44.100Z,0.73
2022-08-20T18:54:23.745Z,0.87
2022-08-20T18:57:04.764Z,1.00
2022-08-20T18:59:35.047Z,2.17
2022-08-20T19:02:15.737Z,0.97
2022-08-20T19:04:44.834Z,0.93
2022-08-20T19:07:20.696Z,1.00
2022-08-20T19:10:27.778Z,0.83
2022-08-20T19:13:20.215Z,1.63
2022-08-20T19:15:51.571Z,1.03
2022-08-20T19:18:25.490Z,1.60
2022-08-20T19:20:57.462Z,1.20
2022-08-20T19:23:28.507Z,1.07
2022-08-20T19:25:58.963Z,1.43
2022-08-20T19:28:29.499Z,0.90
2022-08-20T19:31:10.528Z,1.77
2022-08-20T19:33:44.226Z,1.77
2022-08-20T19:36:14.764Z,1.40
2022-08-20T19:38:47.022Z,2.40
2022-08-20T19:57:28.773Z,2.10
2022-08-20T20:20:15.954Z,4.93
2022-08-20T20:22:50.907Z,2.63
2022-08-20T20:25:21.323Z,2.90
2022-08-20T20:27:50.761Z,3.43
2022-08-20T20:30:24.073Z,3.40
2022-08-20T20:32:52.363Z,2.60
2022-08-20T20:35:29.840Z,2.47
2022-08-20T20:38:02.126Z,2.70
2022-08-20T20:40:33.327Z,2.37
2022-08-20T20:43:06.431Z,2.40
2022-08-20T20:45:37.329Z,2.90
2022-08-20T20:48:18.590Z,3.30
2022-08-20T20:50:49.064Z,3.80
2022-08-20T20:53:32.305Z,3.27
2022-08-20T20:56:31.740Z,6.27
2022-08-20T20:59:05.302Z,3.23
2022-08-20T21:01:46.193Z,3.27
2022-08-20T21:04:16.742Z,3.43
2022-08-20T21:06:46.390Z,2.93
2022-08-20T21:09:14.663Z,3.10
2022-08-20T21:11:42.919Z,2.67
2022-08-20T21:14:11.102Z,2.70
2022-08-20T21:16:39.192Z,3.17
2022-08-20T21:19:09.972Z,2.70
2022-08-20T21:21:38.292Z,3.00
2022-08-20T21:24:08.549Z,2.60
2022-08-20T21:26:37.405Z,3.00
2022-08-20T21:29:06.008Z,3.13
2022-08-20T21:31:37.340Z,3.27
2022-08-20T21:34:06.739Z,2.87
2022-08-20T21:36:34.892Z,2.90
2022-08-20T21:39:03.017Z,3.73
2022-08-20T21:41:32.957Z,2.80
2022-08-20T21:44:02.400Z,3.60
2022-08-20T21:46:32.517Z,3.67
2022-08-20T21:49:00.574Z,2.90
2022-08-20T21:51:30.749Z,3.30
2022-08-20T21:54:01.193Z,3.40
2022-08-20T21:56:29.481Z,3.73
2022-08-20T21:59:04.015Z,3.47
2022-08-20T22:01:32.707Z,3.47
2022-08-20T22:04:00.941Z,2.90
2022-08-20T22:06:29.292Z,3.40
2022-08-20T22:08:57.399Z,3.60
2022-08-20T22:11:25.574Z,3.40
2022-08-20T22:13:54.266Z,3.47
2022-08-20T22:16:24.349Z,4.77
2022-08-20T22:18:53.630Z,6.43
2022-08-20T22:21:24.376Z,3.70
2022-08-20T22:23:53.966Z,3.13
2022-08-20T22:26:22.717Z,3.67
2022-08-20T22:28:55.688Z,3.70
2022-08-20T22:31:27.923Z,3.60
2022-08-20T22:33:56.546Z,4.33
2022-08-20T22:36:25.182Z,3.47
2022-08-20T22:38:55.005Z,3.93
2022-08-20T22:41:24.009Z,3.63
2022-08-20T22:43:56.721Z,4.60
2022-08-20T22:46:28.352Z,3.67
2022-08-20T22:48:57.362Z,3.47
2022-08-20T22:51:30.170Z,4.30
2022-08-20T22:53:59.256Z,5.30
2022-08-20T22:56:27.408Z,3.77
2022-08-20T22:58:59.573Z,3.40
2022-08-20T23:01:29.472Z,3.87
2022-08-20T23:03:58.801Z,4.07
2022-08-20T23:06:27.920Z,3.60
2022-08-20T23:08:56.279Z,3.90
2022-08-20T23:11:24.447Z,3.57
2022-08-20T23:13:52.616Z,3.43
2022-08-20T23:16:20.754Z,3.97
2022-08-20T23:18:50.254Z,5.70
2022-08-20T23:21:18.861Z,3.97
2022-08-20T23:23:47.052Z,3.90
2022-08-20T23:26:18.868Z,4.33
2022-08-20T23:28:47.018Z,4.00
2022-08-20T23:31:17.860Z,3.70
2022-08-20T23:33:45.963Z,3.50
2022-08-20T23:36:17.032Z,4.27
2022-08-20T23:38:45.178Z,3.90
2022-08-20T23:41:13.382Z,4.13
2022-08-20T23:44:01.482Z,4.17
2022-08-20T23:46:31.050Z,4.30
2022-08-20T23:48:59.100Z,4.40
2022-08-20T23:51:28.688Z,3.63
2022-08-20T23:53:57.014Z,3.80
2022-08-20T23:56:25.196Z,3.80
2022-08-20T23:58:56.051Z,3.80
